sensor_id;sensor_type;location;lat;lon;timestamp;P1;durP1;ratioP1;P2;durP2;ratioP2
10900;SDS011;5503;53.208;10.392;2023-05-10T00:01:20;6.10;;;2.37;;
10900;SDS011;5503;53.208;10.392;2023-05-10T00:03:47;3.72;;;2.00;;
10900;SDS011;5503;53.208;10.392;2023-05-10T00:06:16;5.95;;;2.42;;
10900;SDS011;5503;53.208;10.392;2023-05-10T00:08:43;7.88;;;2.38;;
10900;SDS011;5503;53.208;10.392;2023-05-10T00:11:10;4.55;;;2.40;;
10900;SDS011;5503;53.208;10.392;2023-05-10T00:13:37;4.87;;;2.30;;
10900;SDS011;5503;53.208;10.392;2023-05-10T00:16:05;3.83;;;1.73;;
10900;SDS011;5503;53.208;10.392;2023-05-10T00:18:34;4.80;;;2.38;;
10900;SDS011;5503;53.208;10.392;2023-05-10T00:21:05;5.03;;;2.53;;
10900;SDS011;5503;53.208;10.392;2023-05-10T00:23:33;4.97;;;2.22;;
10900;SDS011;5503;53.208;10.392;2023-05-10T00:26:00;4.53;;;2.40;;
10900;SDS011;5503;53.208;10.392;2023-05-10T00:28:28;4.95;;;2.28;;
10900;SDS011;5503;53.208;10.392;2023-05-10T00:30:55;5.25;;;2.30;;
10900;SDS011;5503;53.208;10.392;2023-05-10T00:33:28;3.90;;;1.88;;
10900;SDS011;5503;53.208;10.392;2023-05-10T00:35:55;5.68;;;2.55;;
10900;SDS011;5503;53.208;10.392;2023-05-10T00:38:22;4.30;;;2.40;;
10900;SDS011;5503;53.208;10.392;2023-05-10T00:40:51;4.72;;;2.50;;
10900;SDS011;5503;53.208;10.392;2023-05-10T00:43:18;4.53;;;2.40;;
10900;SDS011;5503;53.208;10.392;2023-05-10T00:45:45;4.30;;;2.30;;
10900;SDS011;5503;53.208;10.392;2023-05-10T00:48:13;5.45;;;2.25;;
10900;SDS011;5503;53.208;10.392;2023-05-10T00:50:40;5.00;;;2.50;;
10900;SDS011;5503;53.208;10.392;2023-05-10T00:53:07;4.50;;;2.40;;
10900;SDS011;5503;53.208;10.392;2023-05-10T00:55:35;5.38;;;2.47;;
10900;SDS011;5503;53.208;10.392;2023-05-10T00:58:04;5.03;;;2.63;;
10900;SDS011;5503;53.208;10.392;2023-05-10T01:00:33;4.45;;;2.50;;
10900;SDS011;5503;53.208;10.392;2023-05-10T01:03:01;5.33;;;2.50;;
10900;SDS011;5503;53.208;10.392;2023-05-10T01:05:28;4.65;;;2.20;;
10900;SDS011;5503;53.208;10.392;2023-05-10T01:07:56;6.72;;;2.70;;
10900;SDS011;5503;53.208;10.392;2023-05-10T01:10:25;4.55;;;2.58;;
10900;SDS011;5503;53.208;10.392;2023-05-10T01:12:52;4.30;;;2.10;;
10900;SDS011;5503;53.208;10.392;2023-05-10T01:15:21;6.00;;;2.13;;
10900;SDS011;5503;53.208;10.392;2023-05-10T01:17:48;4.88;;;2.13;;
10900;SDS011;5503;53.208;10.392;2023-05-10T01:20:16;5.22;;;2.67;;
10900;SDS011;5503;53.208;10.392;2023-05-10T01:22:50;5.20;;;2.83;;
10900;SDS011;5503;53.208;10.392;2023-05-10T01:28:26;5.13;;;2.70;;
10900;SDS011;5503;53.208;10.392;2023-05-10T01:33:52;4.75;;;2.33;;
10900;SDS011;5503;53.208;10.392;2023-05-10T01:36:23;5.90;;;2.50;;
10900;SDS011;5503;53.208;10.392;2023-05-10T01:38:56;5.10;;;2.67;;
10900;SDS011;5503;53.208;10.392;2023-05-10T01:41:28;7.40;;;2.83;;
10900;SDS011;5503;53.208;10.392;2023-05-10T01:44:01;5.70;;;2.67;;
10900;SDS011;5503;53.208;10.392;2023-05-10T01:46:33;5.93;;;2.55;;
10900;SDS011;5503;53.208;10.392;2023-05-10T01:49:05;4.97;;;2.28;;
10900;SDS011;5503;53.208;10.392;2023-05-10T01:51:38;4.97;;;2.13;;
10900;SDS011;5503;53.208;10.392;2023-05-10T01:54:06;4.20;;;2.10;;
10900;SDS011;5503;53.208;10.392;2023-05-10T01:56:35;4.43;;;2.15;;
10900;SDS011;5503;53.208;10.392;2023-05-10T01:59:05;5.07;;;2.63;;
10900;SDS011;5503;53.208;10.392;2023-05-10T02:01:34;4.90;;;2.60;;
10900;SDS011;5503;53.208;10.392;2023-05-10T02:04:22;4.57;;;2.50;;
10900;SDS011;5503;53.208;10.392;2023-05-10T02:06:50;5.23;;;2.23;;
10900;SDS011;5503;53.208;10.392;2023-05-10T02:09:18;5.18;;;2.30;;
10900;SDS011;5503;53.208;10.392;2023-05-10T02:11:46;7.15;;;2.88;;
10900;SDS011;5503;53.208;10.392;2023-05-10T02:14:14;5.25;;;2.75;;
10900;SDS011;5503;53.208;10.392;2023-05-10T02:16:42;5.30;;;2.72;;
10900;SDS011;5503;53.208;10.392;2023-05-10T02:19:10;5.07;;;2.23;;
10900;SDS011;5503;53.208;10.392;2023-05-10T02:21:40;4.90;;;2.63;;
10900;SDS011;5503;53.208;10.392;2023-05-10T02:24:08;5.38;;;2.50;;
10900;SDS011;5503;53.208;10.392;2023-05-10T02:26:36;5.57;;;2.67;;
10900;SDS011;5503;53.208;10.392;2023-05-10T02:29:05;5.13;;;2.45;;
10900;SDS011;5503;53.208;10.392;2023-05-10T02:31:32;5.30;;;2.60;;
10900;SDS011;5503;53.208;10.392;2023-05-10T02:34:00;6.55;;;2.60;;
10900;SDS011;5503;53.208;10.392;2023-05-10T02:36:28;5.10;;;2.70;;
10900;SDS011;5503;53.208;10.392;2023-05-10T02:38:57;4.95;;;2.63;;
10900;SDS011;5503;53.208;10.392;2023-05-10T02:41:25;4.70;;;2.53;;
10900;SDS011;5503;53.208;10.392;2023-05-10T02:43:52;5.00;;;2.43;;
10900;SDS011;5503;53.208;10.392;2023-05-10T02:46:23;5.03;;;2.60;;
10900;SDS011;5503;53.208;10.392;2023-05-10T02:48:50;6.28;;;2.72;;
10900;SDS011;5503;53.208;10.392;2023-05-10T02:51:18;4.82;;;2.35;;
10900;SDS011;5503;53.208;10.392;2023-05-10T02:53:46;5.50;;;2.40;;
10900;SDS011;5503;53.208;10.392;2023-05-10T02:56:16;5.03;;;2.30;;
10900;SDS011;5503;53.208;10.392;2023-05-10T02:58:46;6.47;;;2.40;;
10900;SDS011;5503;53.208;10.392;2023-05-10T03:01:14;5.43;;;2.60;;
10900;SDS011;5503;53.208;10.392;2023-05-10T03:03:41;5.70;;;2.58;;
10900;SDS011;5503;53.208;10.392;2023-05-10T03:06:08;5.53;;;2.42;;
10900;SDS011;5503;53.208;10.392;2023-05-10T03:08:36;4.67;;;2.40;;
10900;SDS011;5503;53.208;10.392;2023-05-10T03:11:08;5.15;;;2.42;;
10900;SDS011;5503;53.208;10.392;2023-05-10T03:13:39;4.75;;;2.13;;
10900;SDS011;5503;53.208;10.392;2023-05-10T03:16:12;5.50;;;2.50;;
10900;SDS011;5503;53.208;10.392;2023-05-10T03:18:42;4.72;;;2.70;;
10900;SDS011;5503;53.208;10.392;2023-05-10T03:21:10;6.60;;;2.83;;
10900;SDS011;5503;53.208;10.392;2023-05-10T03:23:40;6.13;;;2.90;;
10900;SDS011;5503;53.208;10.392;2023-05-10T03:26:07;4.32;;;2.47;;
10900;SDS011;5503;53.208;10.392;2023-05-10T03:28:35;4.40;;;2.20;;
10900;SDS011;5503;53.208;10.392;2023-05-10T03:31:05;6.82;;;2.40;;
10900;SDS011;5503;53.208;10.392;2023-05-10T03:33:33;5.13;;;2.20;;
10900;SDS011;5503;53.208;10.392;2023-05-10T03:36:00;5.68;;;2.38;;
10900;SDS011;5503;53.208;10.392;2023-05-10T03:38:27;5.07;;;2.45;;
10900;SDS011;5503;53.208;10.392;2023-05-10T03:40:54;5.55;;;2.45;;
10900;SDS011;5503;53.208;10.392;2023-05-10T03:43:22;4.45;;;2.58;;
10900;SDS011;5503;53.208;10.392;2023-05-10T03:45:49;4.87;;;2.50;;
10900;SDS011;5503;53.208;10.392;2023-05-10T03:48:18;4.90;;;2.55;;
10900;SDS011;5503;53.208;10.392;2023-05-10T03:50:45;4.57;;;2.40;;
10900;SDS011;5503;53.208;10.392;2023-05-10T03:53:14;4.22;;;2.30;;
10900;SDS011;5503;53.208;10.392;2023-05-10T03:55:41;4.82;;;2.40;;
10900;SDS011;5503;53.208;10.392;2023-05-10T03:58:10;5.00;;;2.67;;
10900;SDS011;5503;53.208;10.392;2023-05-10T04:00:37;4.95;;;2.75;;
10900;SDS011;5503;53.208;10.392;2023-05-10T04:03:08;4.25;;;2.40;;
10900;SDS011;5503;53.208;10.392;2023-05-10T04:05:37;4.68;;;2.28;;
10900;SDS011;5503;53.208;10.392;2023-05-10T04:08:04;5.15;;;2.60;;
10900;SDS011;5503;53.208;10.392;2023-05-10T04:10:32;5.10;;;2.43;;
10900;SDS011;5503;53.208;10.392;2023-05-10T04:12:59;8.02;;;2.65;;
10900;SDS011;5503;53.208;10.392;2023-05-10T04:15:26;5.22;;;3.00;;
10900;SDS011;5503;53.208;10.392;2023-05-10T04:17:54;4.80;;;2.28;;
10900;SDS011;5503;53.208;10.392;2023-05-10T04:20:21;4.70;;;2.20;;
10900;SDS011;5503;53.208;10.392;2023-05-10T04:22:49;4.43;;;2.47;;
10900;SDS011;5503;53.208;10.392;2023-05-10T04:25:17;4.63;;;2.63;;
10900;SDS011;5503;53.208;10.392;2023-05-10T04:27:44;5.50;;;2.63;;
10900;SDS011;5503;53.208;10.392;2023-05-10T04:30:11;4.47;;;2.47;;
10900;SDS011;5503;53.208;10.392;2023-05-10T04:32:38;5.45;;;2.88;;
10900;SDS011;5503;53.208;10.392;2023-05-10T04:35:06;5.93;;;2.40;;
10900;SDS011;5503;53.208;10.392;2023-05-10T04:37:35;5.60;;;2.40;;
10900;SDS011;5503;53.208;10.392;2023-05-10T04:40:04;5.25;;;2.83;;
10900;SDS011;5503;53.208;10.392;2023-05-10T04:42:32;4.55;;;2.47;;
10900;SDS011;5503;53.208;10.392;2023-05-10T04:44:59;5.22;;;2.38;;
10900;SDS011;5503;53.208;10.392;2023-05-10T04:47:26;4.20;;;2.23;;
10900;SDS011;5503;53.208;10.392;2023-05-10T04:49:54;4.40;;;2.42;;
10900;SDS011;5503;53.208;10.392;2023-05-10T04:52:21;6.07;;;2.58;;
10900;SDS011;5503;53.208;10.392;2023-05-10T04:54:48;4.72;;;2.38;;
10900;SDS011;5503;53.208;10.392;2023-05-10T04:57:17;5.28;;;2.40;;
10900;SDS011;5503;53.208;10.392;2023-05-10T04:59:44;5.33;;;2.47;;
10900;SDS011;5503;53.208;10.392;2023-05-10T05:02:11;4.38;;;2.42;;
10900;SDS011;5503;53.208;10.392;2023-05-10T05:04:39;4.47;;;2.03;;
10900;SDS011;5503;53.208;10.392;2023-05-10T05:07:06;5.43;;;2.47;;
10900;SDS011;5503;53.208;10.392;2023-05-10T05:09:33;6.38;;;2.80;;
10900;SDS011;5503;53.208;10.392;2023-05-10T05:12:00;4.70;;;2.40;;
10900;SDS011;5503;53.208;10.392;2023-05-10T05:14:29;4.82;;;2.78;;
10900;SDS011;5503;53.208;10.392;2023-05-10T05:16:56;4.65;;;2.40;;
10900;SDS011;5503;53.208;10.392;2023-05-10T05:19:23;5.03;;;2.38;;
10900;SDS011;5503;53.208;10.392;2023-05-10T05:21:50;5.05;;;2.60;;
10900;SDS011;5503;53.208;10.392;2023-05-10T05:24:18;4.63;;;2.20;;
10900;SDS011;5503;53.208;10.392;2023-05-10T05:26:45;4.40;;;2.35;;
10900;SDS011;5503;53.208;10.392;2023-05-10T05:29:13;4.03;;;1.90;;
10900;SDS011;5503;53.208;10.392;2023-05-10T05:31:41;4.55;;;2.22;;
10900;SDS011;5503;53.208;10.392;2023-05-10T05:34:08;3.97;;;2.05;;
10900;SDS011;5503;53.208;10.392;2023-05-10T05:36:36;5.20;;;2.40;;
10900;SDS011;5503;53.208;10.392;2023-05-10T05:39:04;4.65;;;2.15;;
10900;SDS011;5503;53.208;10.392;2023-05-10T05:41:31;4.95;;;2.65;;
10900;SDS011;5503;53.208;10.392;2023-05-10T05:43:58;5.55;;;2.72;;
10900;SDS011;5503;53.208;10.392;2023-05-10T05:46:26;4.80;;;2.40;;
10900;SDS011;5503;53.208;10.392;2023-05-10T05:48:54;5.70;;;2.30;;
10900;SDS011;5503;53.208;10.392;2023-05-10T05:51:22;4.38;;;2.10;;
10900;SDS011;5503;53.208;10.392;2023-05-10T05:53:49;4.70;;;2.55;;
10900;SDS011;5503;53.208;10.392;2023-05-10T05:56:16;6.25;;;2.90;;
10900;SDS011;5503;53.208;10.392;2023-05-10T05:58:49;4.15;;;2.17;;
10900;SDS011;5503;53.208;10.392;2023-05-10T06:01:16;4.93;;;2.43;;
10900;SDS011;5503;53.208;10.392;2023-05-10T06:03:43;3.88;;;1.77;;
10900;SDS011;5503;53.208;10.392;2023-05-10T06:06:12;5.25;;;2.50;;
10900;SDS011;5503;53.208;10.392;2023-05-10T06:08:39;5.53;;;2.63;;
10900;SDS011;5503;53.208;10.392;2023-05-10T06:11:07;5.70;;;2.38;;
10900;SDS011;5503;53.208;10.392;2023-05-10T06:13:34;4.80;;;2.40;;
10900;SDS011;5503;53.208;10.392;2023-05-10T06:16:01;5.60;;;2.45;;
10900;SDS011;5503;53.208;10.392;2023-05-10T06:18:29;4.70;;;2.35;;
10900;SDS011;5503;53.208;10.392;2023-05-10T06:20:56;4.18;;;2.00;;
10900;SDS011;5503;53.208;10.392;2023-05-10T06:23:25;4.32;;;2.05;;
10900;SDS011;5503;53.208;10.392;2023-05-10T06:25:52;4.73;;;2.20;;
10900;SDS011;5503;53.208;10.392;2023-05-10T06:28:19;4.80;;;2.40;;
10900;SDS011;5503;53.208;10.392;2023-05-10T06:30:46;5.13;;;2.40;;
10900;SDS011;5503;53.208;10.392;2023-05-10T06:33:14;5.35;;;2.33;;
10900;SDS011;5503;53.208;10.392;2023-05-10T06:35:41;4.85;;;2.40;;
10900;SDS011;5503;53.208;10.392;2023-05-10T06:38:08;5.17;;;2.33;;
10900;SDS011;5503;53.208;10.392;2023-05-10T06:40:37;4.55;;;2.33;;
10900;SDS011;5503;53.208;10.392;2023-05-10T06:43:07;4.53;;;2.20;;
10900;SDS011;5503;53.208;10.392;2023-05-10T06:45:35;5.50;;;2.40;;
10900;SDS011;5503;53.208;10.392;2023-05-10T06:48:02;4.70;;;2.35;;
10900;SDS011;5503;53.208;10.392;2023-05-10T06:50:29;5.83;;;2.30;;
10900;SDS011;5503;53.208;10.392;2023-05-10T06:52:56;4.45;;;2.50;;
10900;SDS011;5503;53.208;10.392;2023-05-10T06:55:24;4.40;;;2.20;;
10900;SDS011;5503;53.208;10.392;2023-05-10T06:57:53;5.57;;;2.63;;
10900;SDS011;5503;53.208;10.392;2023-05-10T07:00:20;4.90;;;2.60;;
10900;SDS011;5503;53.208;10.392;2023-05-10T07:02:47;4.37;;;2.03;;
10900;SDS011;5503;53.208;10.392;2023-05-10T07:05:14;4.97;;;2.22;;
10900;SDS011;5503;53.208;10.392;2023-05-10T07:07:42;5.38;;;3.10;;
10900;SDS011;5503;53.208;10.392;2023-05-10T07:10:09;5.70;;;2.30;;
10900;SDS011;5503;53.208;10.392;2023-05-10T07:12:36;4.30;;;2.33;;
10900;SDS011;5503;53.208;10.392;2023-05-10T07:15:06;4.30;;;2.20;;
10900;SDS011;5503;53.208;10.392;2023-05-10T07:17:33;5.13;;;2.58;;
10900;SDS011;5503;53.208;10.392;2023-05-10T07:20:01;4.95;;;2.42;;
10900;SDS011;5503;53.208;10.392;2023-05-10T07:22:28;6.25;;;2.00;;
10900;SDS011;5503;53.208;10.392;2023-05-10T07:24:55;5.32;;;2.55;;
10900;SDS011;5503;53.208;10.392;2023-05-10T07:27:23;4.93;;;2.10;;
10900;SDS011;5503;53.208;10.392;2023-05-10T07:29:50;4.55;;;2.30;;
10900;SDS011;5503;53.208;10.392;2023-05-10T07:32:18;5.60;;;2.50;;
10900;SDS011;5503;53.208;10.392;2023-05-10T07:34:46;4.97;;;2.28;;
10900;SDS011;5503;53.208;10.392;2023-05-10T07:37:13;5.57;;;2.58;;
10900;SDS011;5503;53.208;10.392;2023-05-10T07:39:40;4.90;;;2.47;;
10900;SDS011;5503;53.208;10.392;2023-05-10T07:42:08;4.97;;;2.30;;
10900;SDS011;5503;53.208;10.392;2023-05-10T07:44:35;7.32;;;2.70;;
10900;SDS011;5503;53.208;10.392;2023-05-10T07:47:02;4.68;;;2.25;;
10900;SDS011;5503;53.208;10.392;2023-05-10T07:49:31;6.13;;;2.63;;
10900;SDS011;5503;53.208;10.392;2023-05-10T07:51:58;4.93;;;2.37;;
10900;SDS011;5503;53.208;10.392;2023-05-10T07:54:25;5.03;;;2.35;;
10900;SDS011;5503;53.208;10.392;2023-05-10T07:56:52;4.93;;;2.55;;
10900;SDS011;5503;53.208;10.392;2023-05-10T07:59:20;5.78;;;2.28;;
10900;SDS011;5503;53.208;10.392;2023-05-10T08:01:47;4.80;;;2.50;;
10900;SDS011;5503;53.208;10.392;2023-05-10T08:04:15;6.53;;;2.43;;
10900;SDS011;5503;53.208;10.392;2023-05-10T08:06:43;5.43;;;2.60;;
10900;SDS011;5503;53.208;10.392;2023-05-10T08:09:10;6.35;;;2.47;;
10900;SDS011;5503;53.208;10.392;2023-05-10T08:11:38;5.22;;;2.28;;
10900;SDS011;5503;53.208;10.392;2023-05-10T08:14:05;6.20;;;2.65;;
10900;SDS011;5503;53.208;10.392;2023-05-10T08:16:32;4.47;;;2.23;;
10900;SDS011;5503;53.208;10.392;2023-05-10T08:19:00;5.00;;;2.67;;
10900;SDS011;5503;53.208;10.392;2023-05-10T08:21:27;4.28;;;2.13;;
10900;SDS011;5503;53.208;10.392;2023-05-10T08:23:57;5.53;;;2.60;;
10900;SDS011;5503;53.208;10.392;2023-05-10T08:26:24;6.65;;;2.80;;
10900;SDS011;5503;53.208;10.392;2023-05-10T08:28:52;6.63;;;2.67;;
10900;SDS011;5503;53.208;10.392;2023-05-10T08:31:19;5.55;;;2.53;;
10900;SDS011;5503;53.208;10.392;2023-05-10T08:33:46;5.82;;;2.65;;
10900;SDS011;5503;53.208;10.392;2023-05-10T08:36:13;5.13;;;2.65;;
10900;SDS011;5503;53.208;10.392;2023-05-10T08:38:44;4.97;;;2.38;;
10900;SDS011;5503;53.208;10.392;2023-05-10T08:41:13;5.63;;;2.63;;
10900;SDS011;5503;53.208;10.392;2023-05-10T08:43:40;5.13;;;2.63;;
10900;SDS011;5503;53.208;10.392;2023-05-10T08:46:11;7.15;;;2.92;;
10900;SDS011;5503;53.208;10.392;2023-05-10T08:48:39;4.60;;;2.40;;
10900;SDS011;5503;53.208;10.392;2023-05-10T08:51:07;5.18;;;2.45;;
10900;SDS011;5503;53.208;10.392;2023-05-10T08:53:35;5.00;;;2.60;;
10900;SDS011;5503;53.208;10.392;2023-05-10T08:56:04;6.40;;;2.75;;
10900;SDS011;5503;53.208;10.392;2023-05-10T08:58:32;8.93;;;3.17;;
10900;SDS011;5503;53.208;10.392;2023-05-10T09:01:00;5.32;;;2.70;;
10900;SDS011;5503;53.208;10.392;2023-05-10T09:03:27;5.35;;;2.83;;
10900;SDS011;5503;53.208;10.392;2023-05-10T09:05:55;5.23;;;2.60;;
10900;SDS011;5503;53.208;10.392;2023-05-10T09:08:22;5.32;;;2.60;;
10900;SDS011;5503;53.208;10.392;2023-05-10T09:10:51;5.43;;;2.63;;
10900;SDS011;5503;53.208;10.392;2023-05-10T09:13:18;5.47;;;2.85;;
10900;SDS011;5503;53.208;10.392;2023-05-10T09:15:47;5.65;;;3.05;;
10900;SDS011;5503;53.208;10.392;2023-05-10T09:18:15;6.00;;;3.00;;
10900;SDS011;5503;53.208;10.392;2023-05-10T09:20:42;5.13;;;2.50;;
10900;SDS011;5503;53.208;10.392;2023-05-10T09:23:10;5.72;;;2.75;;
10900;SDS011;5503;53.208;10.392;2023-05-10T09:25:37;6.47;;;2.97;;
10900;SDS011;5503;53.208;10.392;2023-05-10T09:28:05;5.53;;;2.70;;
10900;SDS011;5503;53.208;10.392;2023-05-10T09:30:33;5.17;;;2.67;;
10900;SDS011;5503;53.208;10.392;2023-05-10T09:33:02;5.32;;;2.35;;
10900;SDS011;5503;53.208;10.392;2023-05-10T09:35:30;5.57;;;2.60;;
10900;SDS011;5503;53.208;10.392;2023-05-10T09:37:59;5.63;;;3.10;;
10900;SDS011;5503;53.208;10.392;2023-05-10T09:40:27;5.15;;;2.42;;
10900;SDS011;5503;53.208;10.392;2023-05-10T09:42:55;6.13;;;2.80;;
10900;SDS011;5503;53.208;10.392;2023-05-10T09:45:23;5.05;;;3.00;;
10900;SDS011;5503;53.208;10.392;2023-05-10T09:47:50;11.45;;;2.95;;
10900;SDS011;5503;53.208;10.392;2023-05-10T09:50:19;5.93;;;3.28;;
10900;SDS011;5503;53.208;10.392;2023-05-10T09:52:48;5.38;;;2.55;;
10900;SDS011;5503;53.208;10.392;2023-05-10T09:55:16;5.60;;;2.50;;
10900;SDS011;5503;53.208;10.392;2023-05-10T09:57:43;5.68;;;2.65;;
10900;SDS011;5503;53.208;10.392;2023-05-10T10:00:11;6.00;;;2.90;;
10900;SDS011;5503;53.208;10.392;2023-05-10T10:05:11;5.88;;;2.90;;
10900;SDS011;5503;53.208;10.392;2023-05-10T10:07:40;5.97;;;3.10;;
10900;SDS011;5503;53.208;10.392;2023-05-10T10:10:08;4.82;;;2.42;;
10900;SDS011;5503;53.208;10.392;2023-05-10T10:12:37;5.25;;;2.97;;
10900;SDS011;5503;53.208;10.392;2023-05-10T10:15:05;5.82;;;2.95;;
10900;SDS011;5503;53.208;10.392;2023-05-10T10:17:32;6.30;;;2.90;;
10900;SDS011;5503;53.208;10.392;2023-05-10T10:20:02;5.13;;;2.70;;
10900;SDS011;5503;53.208;10.392;2023-05-10T10:22:29;5.68;;;2.95;;
10900;SDS011;5503;53.208;10.392;2023-05-10T10:24:58;6.20;;;2.92;;
10900;SDS011;5503;53.208;10.392;2023-05-10T10:27:27;5.60;;;2.75;;
10900;SDS011;5503;53.208;10.392;2023-05-10T10:29:59;6.03;;;3.28;;
10900;SDS011;5503;53.208;10.392;2023-05-10T10:32:30;5.63;;;3.10;;
10900;SDS011;5503;53.208;10.392;2023-05-10T10:35:00;6.20;;;3.33;;
10900;SDS011;5503;53.208;10.392;2023-05-10T10:37:42;5.70;;;3.42;;
10900;SDS011;5503;53.208;10.392;2023-05-10T10:40:24;6.85;;;3.30;;
10900;SDS011;5503;53.208;10.392;2023-05-10T10:42:51;6.35;;;3.55;;
10900;SDS011;5503;53.208;10.392;2023-05-10T10:45:20;7.17;;;3.60;;
10900;SDS011;5503;53.208;10.392;2023-05-10T10:47:47;6.88;;;3.80;;
10900;SDS011;5503;53.208;10.392;2023-05-10T10:50:16;8.88;;;3.42;;
10900;SDS011;5503;53.208;10.392;2023-05-10T10:52:44;6.28;;;3.00;;
10900;SDS011;5503;53.208;10.392;2023-05-10T10:55:16;6.60;;;3.45;;
10900;SDS011;5503;53.208;10.392;2023-05-10T10:57:46;6.63;;;3.10;;
10900;SDS011;5503;53.208;10.392;2023-05-10T11:00:18;6.30;;;3.50;;
10900;SDS011;5503;53.208;10.392;2023-05-10T11:02:46;6.97;;;3.42;;
10900;SDS011;5503;53.208;10.392;2023-05-10T11:08:13;5.60;;;3.20;;
10900;SDS011;5503;53.208;10.392;2023-05-10T11:10:48;5.63;;;3.17;;
10900;SDS011;5503;53.208;10.392;2023-05-10T11:13:26;4.90;;;2.85;;
10900;SDS011;5503;53.208;10.392;2023-05-10T11:15:53;7.05;;;3.70;;
10900;SDS011;5503;53.208;10.392;2023-05-10T11:18:23;6.10;;;3.08;;
10900;SDS011;5503;53.208;10.392;2023-05-10T11:20:51;6.40;;;3.20;;
10900;SDS011;5503;53.208;10.392;2023-05-10T11:23:18;7.97;;;3.70;;
10900;SDS011;5503;53.208;10.392;2023-05-10T11:25:46;7.50;;;3.70;;
10900;SDS011;5503;53.208;10.392;2023-05-10T11:28:16;7.50;;;3.80;;
10900;SDS011;5503;53.208;10.392;2023-05-10T11:30:45;8.23;;;3.67;;
10900;SDS011;5503;53.208;10.392;2023-05-10T11:33:15;7.80;;;3.90;;
10900;SDS011;5503;53.208;10.392;2023-05-10T11:35:43;8.10;;;3.73;;
10900;SDS011;5503;53.208;10.392;2023-05-10T11:38:11;9.25;;;4.43;;
10900;SDS011;5503;53.208;10.392;2023-05-10T11:40:38;8.60;;;4.70;;
10900;SDS011;5503;53.208;10.392;2023-05-10T11:43:06;6.70;;;3.83;;
10900;SDS011;5503;53.208;10.392;2023-05-10T11:45:35;7.32;;;3.78;;
10900;SDS011;5503;53.208;10.392;2023-05-10T11:48:04;7.77;;;3.70;;
10900;SDS011;5503;53.208;10.392;2023-05-10T11:50:31;7.47;;;3.85;;
10900;SDS011;5503;53.208;10.392;2023-05-10T11:52:59;7.50;;;4.07;;
10900;SDS011;5503;53.208;10.392;2023-05-10T11:55:26;7.57;;;3.78;;
10900;SDS011;5503;53.208;10.392;2023-05-10T11:57:55;7.43;;;3.80;;
10900;SDS011;5503;53.208;10.392;2023-05-10T12:00:22;8.83;;;3.80;;
10900;SDS011;5503;53.208;10.392;2023-05-10T12:02:49;6.18;;;3.58;;
10900;SDS011;5503;53.208;10.392;2023-05-10T12:05:18;7.18;;;3.65;;
10900;SDS011;5503;53.208;10.392;2023-05-10T12:07:45;7.68;;;3.90;;
10900;SDS011;5503;53.208;10.392;2023-05-10T12:10:13;7.63;;;3.83;;
10900;SDS011;5503;53.208;10.392;2023-05-10T12:12:41;7.07;;;3.67;;
10900;SDS011;5503;53.208;10.392;2023-05-10T12:15:12;7.47;;;3.35;;
10900;SDS011;5503;53.208;10.392;2023-05-10T12:17:44;6.57;;;3.42;;
10900;SDS011;5503;53.208;10.392;2023-05-10T12:20:14;6.40;;;3.30;;
10900;SDS011;5503;53.208;10.392;2023-05-10T12:22:45;6.53;;;3.45;;
10900;SDS011;5503;53.208;10.392;2023-05-10T12:25:12;7.70;;;3.57;;
10900;SDS011;5503;53.208;10.392;2023-05-10T12:27:39;7.72;;;3.67;;
10900;SDS011;5503;53.208;10.392;2023-05-10T12:30:07;6.88;;;3.78;;
10900;SDS011;5503;53.208;10.392;2023-05-10T12:32:38;8.57;;;3.95;;
10900;SDS011;5503;53.208;10.392;2023-05-10T12:35:06;6.75;;;3.65;;
10900;SDS011;5503;53.208;10.392;2023-05-10T12:37:33;7.13;;;3.67;;
10900;SDS011;5503;53.208;10.392;2023-05-10T12:40:07;7.38;;;4.05;;
10900;SDS011;5503;53.208;10.392;2023-05-10T12:42:35;6.90;;;3.60;;
10900;SDS011;5503;53.208;10.392;2023-05-10T12:45:03;7.80;;;4.00;;
10900;SDS011;5503;53.208;10.392;2023-05-10T12:47:31;6.88;;;4.00;;
10900;SDS011;5503;53.208;10.392;2023-05-10T12:49:58;7.37;;;3.47;;
10900;SDS011;5503;53.208;10.392;2023-05-10T12:52:26;5.65;;;3.65;;
10900;SDS011;5503;53.208;10.392;2023-05-10T12:54:53;7.03;;;3.53;;
10900;SDS011;5503;53.208;10.392;2023-05-10T12:57:22;6.45;;;2.95;;
10900;SDS011;5503;53.208;10.392;2023-05-10T12:59:49;7.28;;;3.55;;
10900;SDS011;5503;53.208;10.392;2023-05-10T13:02:17;5.90;;;2.93;;
10900;SDS011;5503;53.208;10.392;2023-05-10T13:04:45;6.03;;;2.88;;
10900;SDS011;5503;53.208;10.392;2023-05-10T13:07:12;6.25;;;3.17;;
10900;SDS011;5503;53.208;10.392;2023-05-10T13:09:39;6.10;;;3.33;;
10900;SDS011;5503;53.208;10.392;2023-05-10T13:12:07;5.78;;;3.05;;
10900;SDS011;5503;53.208;10.392;2023-05-10T13:14:35;5.47;;;2.83;;
10900;SDS011;5503;53.208;10.392;2023-05-10T13:17:03;5.82;;;3.08;;
10900;SDS011;5503;53.208;10.392;2023-05-10T13:19:30;6.25;;;2.95;;
10900;SDS011;5503;53.208;10.392;2023-05-10T13:21:57;4.60;;;2.30;;
10900;SDS011;5503;53.208;10.392;2023-05-10T13:24:24;6.78;;;2.42;;
10900;SDS011;5503;53.208;10.392;2023-05-10T13:26:52;6.27;;;2.90;;
10900;SDS011;5503;53.208;10.392;2023-05-10T13:29:19;5.95;;;2.88;;
10900;SDS011;5503;53.208;10.392;2023-05-10T13:31:48;5.95;;;2.72;;
10900;SDS011;5503;53.208;10.392;2023-05-10T13:34:16;5.32;;;2.70;;
10900;SDS011;5503;53.208;10.392;2023-05-10T13:36:45;4.85;;;2.35;;
10900;SDS011;5503;53.208;10.392;2023-05-10T13:39:12;5.10;;;2.33;;
10900;SDS011;5503;53.208;10.392;2023-05-10T13:41:40;4.63;;;2.38;;
10900;SDS011;5503;53.208;10.392;2023-05-10T13:44:07;5.00;;;2.55;;
10900;SDS011;5503;53.208;10.392;2023-05-10T13:46:34;5.47;;;2.80;;
10900;SDS011;5503;53.208;10.392;2023-05-10T13:49:04;5.18;;;2.90;;
10900;SDS011;5503;53.208;10.392;2023-05-10T13:51:31;4.77;;;2.40;;
10900;SDS011;5503;53.208;10.392;2023-05-10T13:53:59;5.32;;;2.30;;
10900;SDS011;5503;53.208;10.392;2023-05-10T13:56:26;5.15;;;2.50;;
10900;SDS011;5503;53.208;10.392;2023-05-10T13:58:53;5.97;;;2.45;;
10900;SDS011;5503;53.208;10.392;2023-05-10T14:01:20;5.53;;;2.50;;
10900;SDS011;5503;53.208;10.392;2023-05-10T14:03:48;4.87;;;2.27;;
10900;SDS011;5503;53.208;10.392;2023-05-10T14:06:16;4.97;;;2.00;;
10900;SDS011;5503;53.208;10.392;2023-05-10T14:08:44;5.10;;;2.50;;
10900;SDS011;5503;53.208;10.392;2023-05-10T14:11:11;4.35;;;2.35;;
10900;SDS011;5503;53.208;10.392;2023-05-10T14:13:38;4.97;;;2.50;;
10900;SDS011;5503;53.208;10.392;2023-05-10T14:16:06;4.17;;;1.53;;
10900;SDS011;5503;53.208;10.392;2023-05-10T14:18:33;5.07;;;2.20;;
10900;SDS011;5503;53.208;10.392;2023-05-10T14:21:01;4.95;;;2.35;;
10900;SDS011;5503;53.208;10.392;2023-05-10T14:23:30;5.10;;;2.33;;
10900;SDS011;5503;53.208;10.392;2023-05-10T14:25:57;5.05;;;2.25;;
10900;SDS011;5503;53.208;10.392;2023-05-10T14:28:24;5.00;;;2.20;;
10900;SDS011;5503;53.208;10.392;2023-05-10T14:30:51;4.18;;;1.85;;
10900;SDS011;5503;53.208;10.392;2023-05-10T14:33:18;4.43;;;2.00;;
10900;SDS011;5503;53.208;10.392;2023-05-10T14:35:46;4.70;;;1.95;;
10900;SDS011;5503;53.208;10.392;2023-05-10T14:38:14;4.50;;;2.00;;
10900;SDS011;5503;53.208;10.392;2023-05-10T14:40:43;4.37;;;2.10;;
10900;SDS011;5503;53.208;10.392;2023-05-10T14:43:10;4.57;;;1.77;;
10900;SDS011;5503;53.208;10.392;2023-05-10T14:45:37;4.55;;;2.13;;
10900;SDS011;5503;53.208;10.392;2023-05-10T14:48:04;3.65;;;1.65;;
10900;SDS011;5503;53.208;10.392;2023-05-10T14:50:36;4.28;;;2.00;;
10900;SDS011;5503;53.208;10.392;2023-05-10T14:53:03;3.70;;;1.80;;
10900;SDS011;5503;53.208;10.392;2023-05-10T14:55:31;3.88;;;1.60;;
10900;SDS011;5503;53.208;10.392;2023-05-10T14:58:01;5.28;;;1.77;;
10900;SDS011;5503;53.208;10.392;2023-05-10T15:00:29;4.22;;;2.10;;
10900;SDS011;5503;53.208;10.392;2023-05-10T15:02:56;4.65;;;1.90;;
10900;SDS011;5503;53.208;10.392;2023-05-10T15:05:24;4.23;;;1.70;;